EGBB/BHX METAR and TAF weather

Enter ICAO airport designator
Station Type Date Time Source
EGBB METAR 2022/11/30 16:20 UTC NOAA

EGBB 301620Z 15004KT 8000 OVC009 06/04 Q1026


Station Type Date Time Source
EGBB Decoded METAR 2022/11/30 16:20 UTC NOAA

Birmingham / Airport, United Kingdom (EGBB) 52-27N 001-44W 0M
Nov 30, 2022 - 11:20 AM EST / 2022.11.30 1620 UTC
Wind: from the SSE (150 degrees) at 5 MPH (4 KT):0
Visibility: 4 mile(s):0
Sky conditions: overcast
Temperature: 42 F (6 C)
Dew Point: 39 F (4 C)
Relative Humidity: 86%
Pressure (altimeter): 30.30 in. Hg (1026 hPa)
ob: EGBB 301620Z 15004KT 8000 OVC009 06/04 Q1026
cycle: 16

Station Type Date Time Source
EGBB TAF 2022/11/30 14:06 UTC NOAA

TAF
AMD EGBB 301459Z 3014/0112 16005KT 9999 BKN020 PROB30
TEMPO 3014/3017 8000 BKN008 PROB30 3017/3021 4000 BR
BECMG 3021/3024 2000 BR BKN002
BECMG 0100/0103 0300 FG VV/// PROB30
TEMPO 0109/0112 1500 BR BKN005

Example: see airport list